createdAt,value
2018-03-28T00:00:34.824Z,61.49
2018-03-28T00:03:06.416Z,61.53
2018-03-28T00:05:41.626Z,61.71
2018-03-28T00:08:13.762Z,61.14
2018-03-28T00:10:45.029Z,62.65
2018-03-28T00:13:15.666Z,63.17
2018-03-28T00:15:48.153Z,63.56
2018-03-28T00:18:19.629Z,62.72
2018-03-28T00:20:53.364Z,61.77
2018-03-28T00:23:27.440Z,61.89
2018-03-28T00:26:01.898Z,61.97
2018-03-28T00:28:33.065Z,61.74
2018-03-28T00:31:04.703Z,61.52
2018-03-28T00:33:40.446Z,61.18
2018-03-28T00:36:16.867Z,62.06
2018-03-28T00:38:47.862Z,62.43
2018-03-28T00:41:19.039Z,62.75
2018-03-28T00:43:49.882Z,62.22
2018-03-28T00:46:23.027Z,61.41
2018-03-28T00:49:43.937Z,61.33
2018-03-28T00:52:15.372Z,62.25
2018-03-28T00:54:45.952Z,62.62
2018-03-28T00:57:19.163Z,61.39
2018-03-28T00:59:57.481Z,61.28
2018-03-28T01:02:31.152Z,61.31
2018-03-28T01:05:01.321Z,61.12
2018-03-28T01:07:36.660Z,60.98
2018-03-28T01:10:18.803Z,60.96
2018-03-28T01:12:51.413Z,60.24
2018-03-28T01:15:21.532Z,59.83
2018-03-28T01:17:53.844Z,60.05
2018-03-28T01:20:25.161Z,60.16
2018-03-28T01:22:55.729Z,60.01
2018-03-28T01:25:27.614Z,59.86
2018-03-28T01:27:59.063Z,60.55
2018-03-28T01:30:31.034Z,61.07
2018-03-28T01:33:05.855Z,61.70
2018-03-28T01:35:38.093Z,61.76
2018-03-28T01:38:11.768Z,61.67
2018-03-28T01:40:48.228Z,61.75
2018-03-28T01:43:19.730Z,61.56
2018-03-28T01:45:50.232Z,61.10
2018-03-28T01:48:24.067Z,62.00
2018-03-28T01:50:58.207Z,62.18
2018-03-28T01:53:30.331Z,61.57
2018-03-28T01:56:01.811Z,61.06
2018-03-28T01:58:35.738Z,61.14
2018-03-28T02:01:06.238Z,62.16
2018-03-28T02:03:38.450Z,62.51
2018-03-28T02:06:08.729Z,62.85
2018-03-28T02:08:40.215Z,63.07
2018-03-28T02:11:12.550Z,63.12
2018-03-28T02:13:47.376Z,62.08
2018-03-28T02:16:22.553Z,62.08
2018-03-28T02:18:53.102Z,62.27
2018-03-28T02:21:24.854Z,62.26
2018-03-28T02:23:56.344Z,61.82
2018-03-28T02:26:27.935Z,61.70
2018-03-28T02:28:59.658Z,61.58
2018-03-28T02:31:31.260Z,61.76
2018-03-28T02:34:03.742Z,62.62
2018-03-28T02:36:35.324Z,63.72
2018-03-28T02:39:07.077Z,63.92
2018-03-28T02:41:39.736Z,64.37
2018-03-28T02:44:40.763Z,65.10
2018-03-28T02:47:12.376Z,64.00
2018-03-28T02:49:43.185Z,64.03
2018-03-28T02:52:15.861Z,63.41
2018-03-28T02:54:49.017Z,62.92
2018-03-28T02:57:19.493Z,62.84
2018-03-28T02:59:50.366Z,62.62
2018-03-28T03:02:28.475Z,62.99
2018-03-28T03:05:00.087Z,63.67
2018-03-28T03:07:50.670Z,63.38
2018-03-28T03:10:21.329Z,64.27
2018-03-28T03:12:53.329Z,65.17
2018-03-28T03:15:25.763Z,65.99
2018-03-28T03:17:59.677Z,66.54
2018-03-28T03:20:30.171Z,65.99
2018-03-28T03:23:05.507Z,65.91
2018-03-28T03:25:38.079Z,65.65
2018-03-28T03:28:09.206Z,66.10
2018-03-28T03:30:39.766Z,66.48
2018-03-28T03:33:11.295Z,66.05
2018-03-28T03:35:43.422Z,65.09
2018-03-28T03:38:16.423Z,64.56
2018-03-28T03:40:47.868Z,63.71
2018-03-28T03:43:20.957Z,64.02
2018-03-28T03:45:53.373Z,63.79
2018-03-28T03:48:25.953Z,62.92
2018-03-28T03:51:04.500Z,62.29
2018-03-28T03:53:36.678Z,62.19
2018-03-28T03:56:11.676Z,62.36
2018-03-28T03:58:42.723Z,62.14
2018-03-28T04:01:13.999Z,62.60
2018-03-28T04:03:47.493Z,63.34
2018-03-28T04:06:19.810Z,62.82
2018-03-28T04:08:51.199Z,62.57
2018-03-28T04:11:23.052Z,62.46
2018-03-28T04:13:56.229Z,61.89
2018-03-28T04:19:28.889Z,63.53
2018-03-28T04:22:05.431Z,63.24
2018-03-28T04:24:42.548Z,63.23
2018-03-28T04:27:14.885Z,63.88
2018-03-28T04:29:48.234Z,64.05
2018-03-28T04:32:22.598Z,65.58
2018-03-28T04:34:53.592Z,66.33
2018-03-28T04:37:25.016Z,66.91
2018-03-28T04:39:57.235Z,66.40
2018-03-28T04:45:22.100Z,65.80
2018-03-28T04:47:53.265Z,66.51
2018-03-28T04:50:26.004Z,66.34
2018-03-28T04:52:57.410Z,65.77
2018-03-28T04:55:30.635Z,65.02
2018-03-28T04:58:04.297Z,63.86
2018-03-28T05:00:36.809Z,63.65
2018-03-28T05:03:08.458Z,64.38
2018-03-28T05:05:44.404Z,64.34
2018-03-28T05:08:15.631Z,63.85
2018-03-28T05:10:49.917Z,63.02
2018-03-28T05:13:22.688Z,62.24
2018-03-28T05:15:54.880Z,61.45
2018-03-28T05:18:27.401Z,62.40
2018-03-28T05:21:00.885Z,62.48
2018-03-28T05:23:34.952Z,62.98
2018-03-28T05:26:07.263Z,62.36
2018-03-28T05:28:40.558Z,61.77
2018-03-28T05:31:14.040Z,62.09
2018-03-28T05:33:47.545Z,62.56
2018-03-28T05:36:20.573Z,62.58
2018-03-28T05:38:52.336Z,63.03
2018-03-28T05:41:23.845Z,63.06
2018-03-28T05:43:57.308Z,62.65
2018-03-28T05:46:32.402Z,61.20
2018-03-28T05:49:07.163Z,61.91
2018-03-28T05:51:38.787Z,61.90
2018-03-28T05:54:11.443Z,61.74
2018-03-28T05:56:42.820Z,61.84
2018-03-28T05:59:16.656Z,61.17
2018-03-28T06:01:49.795Z,61.86
2018-03-28T06:04:21.293Z,61.94
2018-03-28T06:06:56.387Z,61.22
2018-03-28T06:09:30.290Z,60.30
2018-03-28T06:12:02.222Z,60.02
2018-03-28T06:14:35.684Z,61.18
2018-03-28T06:17:09.018Z,60.57
2018-03-28T06:19:39.766Z,59.67
2018-03-28T06:22:11.392Z,59.79
2018-03-28T06:24:44.813Z,59.25
2018-03-28T06:27:18.442Z,58.95
2018-03-28T06:29:51.166Z,59.51
2018-03-28T06:32:22.741Z,58.60
2018-03-28T06:34:53.127Z,59.07
2018-03-28T06:37:26.475Z,59.40
2018-03-28T06:40:00.934Z,59.20
2018-03-28T06:42:36.568Z,57.69
2018-03-28T06:45:07.141Z,58.34
2018-03-28T06:47:37.479Z,57.89
2018-03-28T06:50:08.238Z,57.63
2018-03-28T06:52:40.245Z,57.37
2018-03-28T06:55:11.924Z,56.97
2018-03-28T06:57:42.559Z,55.49
2018-03-28T07:00:14.261Z,55.27
2018-03-28T07:02:48.772Z,55.91
2018-03-28T07:05:22.320Z,55.07
2018-03-28T07:07:52.605Z,54.84
2018-03-28T07:10:27.816Z,54.73
2018-03-28T07:13:04.838Z,55.49
2018-03-28T07:15:40.995Z,54.57
2018-03-28T07:18:12.136Z,54.02
2018-03-28T07:20:42.541Z,54.09
2018-03-28T07:23:16.886Z,53.34
2018-03-28T07:25:47.488Z,53.88
2018-03-28T07:28:20.209Z,53.19
2018-03-28T07:30:54.597Z,52.28
2018-03-28T07:33:25.239Z,52.82
2018-03-28T07:35:55.763Z,53.27
2018-03-28T07:38:29.166Z,53.03
2018-03-28T07:41:00.896Z,52.19
2018-03-28T07:43:35.127Z,50.85
2018-03-28T07:46:06.599Z,51.84
2018-03-28T07:48:40.357Z,50.99
2018-03-28T07:51:12.708Z,51.78
2018-03-28T07:53:42.898Z,50.99
2018-03-28T07:56:15.623Z,51.94
2018-03-28T07:58:47.911Z,52.17
2018-03-28T08:01:19.474Z,51.77
2018-03-28T08:03:50.506Z,51.13
2018-03-28T08:06:23.881Z,51.79
2018-03-28T08:08:55.091Z,50.87
2018-03-28T08:11:54.570Z,50.00
2018-03-28T08:14:29.189Z,51.65
2018-03-28T08:20:12.578Z,48.24
2018-03-28T08:22:51.436Z,48.84
2018-03-28T08:25:22.628Z,50.37
2018-03-28T08:27:53.047Z,49.22
2018-03-28T08:30:23.201Z,49.61
2018-03-28T08:32:58.570Z,48.65
2018-03-28T08:35:41.389Z,48.69
2018-03-28T08:38:12.676Z,46.83
2018-03-28T08:40:43.845Z,48.32
2018-03-28T08:43:15.848Z,48.54
2018-03-28T08:45:47.039Z,48.66
2018-03-28T08:48:18.849Z,47.06
2018-03-28T08:50:50.608Z,48.13
2018-03-28T08:53:20.839Z,46.85
2018-03-28T08:55:51.690Z,45.91
2018-03-28T08:58:22.353Z,45.88
2018-03-28T09:00:52.655Z,47.15
2018-03-28T09:03:24.501Z,47.61
2018-03-28T09:05:57.020Z,46.68
2018-03-28T09:08:31.386Z,45.91
2018-03-28T09:11:02.716Z,44.73
2018-03-28T09:13:38.314Z,44.55
2018-03-28T09:16:11.106Z,44.70
2018-03-28T09:18:44.944Z,46.71
2018-03-28T09:21:19.271Z,46.75
2018-03-28T09:23:53.977Z,47.35
2018-03-28T09:26:25.689Z,48.70
2018-03-28T09:28:57.265Z,46.75
2018-03-28T09:31:29.484Z,45.40
2018-03-28T09:33:58.923Z,45.80
2018-03-28T09:36:28.291Z,45.04
2018-03-28T09:39:00.179Z,44.48
2018-03-28T09:41:33.799Z,43.14
2018-03-28T09:44:04.836Z,42.92
2018-03-28T09:46:34.459Z,44.65
2018-03-28T09:49:04.694Z,44.21
2018-03-28T09:51:34.133Z,44.26
2018-03-28T09:54:03.470Z,42.60
2018-03-28T09:56:32.802Z,41.20
2018-03-28T09:59:02.219Z,41.62
2018-03-28T10:01:31.750Z,42.09
2018-03-28T10:04:06.612Z,43.31
2018-03-28T10:06:36.013Z,42.19
2018-03-28T10:09:05.329Z,42.70
2018-03-28T10:11:36.911Z,42.47
2018-03-28T10:14:06.426Z,42.74
2018-03-28T10:16:35.851Z,42.47
2018-03-28T10:19:05.348Z,42.84
2018-03-28T10:21:34.877Z,42.06
2018-03-28T10:24:04.176Z,43.39
2018-03-28T10:26:33.503Z,43.54
2018-03-28T10:29:02.990Z,43.87
2018-03-28T10:31:32.391Z,43.50
2018-03-28T10:34:01.939Z,43.70
2018-03-28T10:36:31.995Z,44.38
2018-03-28T10:39:01.460Z,44.10
2018-03-28T10:41:31.620Z,43.07
2018-03-28T10:44:01.071Z,42.76
2018-03-28T10:46:30.936Z,42.78
2018-03-28T10:49:00.710Z,42.78
2018-03-28T10:51:30.033Z,42.40
2018-03-28T10:53:59.470Z,42.60
2018-03-28T10:56:29.484Z,42.97
2018-03-28T10:59:00.092Z,42.59
2018-03-28T11:01:29.418Z,42.45
2018-03-28T11:04:00.113Z,41.41
2018-03-28T11:06:29.469Z,42.64
2018-03-28T11:08:59.526Z,42.31
2018-03-28T11:11:29.563Z,42.64
2018-03-28T11:13:59.467Z,42.84
2018-03-28T11:16:30.416Z,42.06
2018-03-28T11:19:00.130Z,41.98
2018-03-28T11:21:30.336Z,41.86
2018-03-28T11:23:59.716Z,40.83
2018-03-28T11:26:29.679Z,42.43
2018-03-28T11:28:59.956Z,42.52
2018-03-28T11:31:30.949Z,43.15
2018-03-28T11:34:00.320Z,43.58
2018-03-28T11:36:30.903Z,43.03
2018-03-28T11:39:02.358Z,41.38
2018-03-28T11:41:32.506Z,42.42
2018-03-28T11:44:09.623Z,40.78
2018-03-28T11:46:40.157Z,41.28
2018-03-28T11:49:10.701Z,40.92
2018-03-28T11:51:42.901Z,38.61
2018-03-28T11:54:13.883Z,40.49
2018-03-28T11:56:44.077Z,41.04
2018-03-28T11:59:14.924Z,42.20
2018-03-28T12:01:44.817Z,43.79
2018-03-28T12:04:17.259Z,42.33
2018-03-28T12:06:48.155Z,42.36
2018-03-28T12:09:20.006Z,41.50
2018-03-28T12:11:51.832Z,42.07
2018-03-28T12:14:26.817Z,38.41
2018-03-28T12:16:57.616Z,38.10
2018-03-28T12:19:28.637Z,38.78
2018-03-28T12:21:59.679Z,37.46
2018-03-28T12:24:30.905Z,37.52
2018-03-28T12:27:07.374Z,39.25
2018-03-28T12:29:39.124Z,37.43
2018-03-28T12:32:12.373Z,36.42
2018-03-28T12:34:45.900Z,37.09
2018-03-28T12:37:18.902Z,36.29
2018-03-28T12:39:52.663Z,35.75
2018-03-28T12:42:23.367Z,36.57
2018-03-28T12:44:53.909Z,35.20
2018-03-28T12:47:24.803Z,35.35
2018-03-28T12:49:56.855Z,34.93
2018-03-28T12:52:27.358Z,35.37
2018-03-28T12:54:58.524Z,34.59
2018-03-28T12:57:28.720Z,32.88
2018-03-28T12:59:59.881Z,32.36
2018-03-28T13:02:30.397Z,33.71
2018-03-28T13:05:01.297Z,32.33
2018-03-28T13:07:33.780Z,33.50
2018-03-28T13:10:07.420Z,34.10
2018-03-28T13:12:38.618Z,33.47
2018-03-28T13:15:10.418Z,33.27
2018-03-28T13:17:39.841Z,34.64
2018-03-28T13:20:09.937Z,34.47
2018-03-28T13:22:40.020Z,33.70
2018-03-28T13:25:09.325Z,34.95
2018-03-28T13:27:38.879Z,34.80
2018-03-28T13:30:34.132Z,34.31
2018-03-28T13:33:03.689Z,35.19
2018-03-28T13:35:33.185Z,35.54
2018-03-28T13:38:05.582Z,35.41
2018-03-28T13:40:42.179Z,35.40
2018-03-28T13:43:16.224Z,36.51
2018-03-28T13:45:47.676Z,36.03
2018-03-28T13:48:19.715Z,36.89
2018-03-28T13:50:50.630Z,37.46
2018-03-28T13:53:23.759Z,38.45
2018-03-28T13:55:56.539Z,37.11
2018-03-28T13:58:27.680Z,36.17
2018-03-28T14:00:57.078Z,37.25
2018-03-28T14:03:26.385Z,38.05
2018-03-28T14:05:55.756Z,38.87
2018-03-28T14:08:25.093Z,39.91
2018-03-28T14:10:54.451Z,39.89
2018-03-28T14:13:23.874Z,38.72
2018-03-28T14:15:53.974Z,37.96
2018-03-28T14:18:23.515Z,38.78
2018-03-28T14:20:54.620Z,39.03
2018-03-28T14:23:24.704Z,39.34
2018-03-28T14:25:54.190Z,38.89
2018-03-28T14:28:23.550Z,38.53
2018-03-28T14:30:52.968Z,39.54
2018-03-28T14:33:22.337Z,41.10
2018-03-28T14:35:51.754Z,39.66
2018-03-28T14:38:21.175Z,39.23
2018-03-28T14:40:50.523Z,38.49
2018-03-28T14:43:20.194Z,38.13
2018-03-28T14:45:50.615Z,39.56
2018-03-28T14:48:19.946Z,38.44
2018-03-28T14:50:50.099Z,38.74
2018-03-28T14:53:19.522Z,37.44
2018-03-28T14:55:48.923Z,38.49
2018-03-28T14:58:19.167Z,38.93
2018-03-28T15:00:49.432Z,38.50
2018-03-28T15:03:18.799Z,38.67
2018-03-28T15:05:48.209Z,38.63
2018-03-28T15:08:17.547Z,38.50
2018-03-28T15:10:46.837Z,38.09
2018-03-28T15:13:16.463Z,38.82
2018-03-28T15:15:46.566Z,38.81
2018-03-28T15:18:16.637Z,37.25
2018-03-28T15:20:46.009Z,37.29
2018-03-28T15:23:15.370Z,38.48
2018-03-28T15:25:44.797Z,38.58
2018-03-28T15:28:14.146Z,39.49
2018-03-28T15:30:43.483Z,40.43
2018-03-28T15:33:14.315Z,39.40
2018-03-28T15:35:43.705Z,40.18
2018-03-28T15:38:13.866Z,40.58
2018-03-28T15:40:45.006Z,40.10
2018-03-28T15:43:16.307Z,39.92
2018-03-28T15:45:46.616Z,40.26
2018-03-28T15:48:18.040Z,40.77
2018-03-28T15:50:51.368Z,41.47
2018-03-28T15:53:23.711Z,41.21
2018-03-28T15:55:55.199Z,40.79
2018-03-28T15:58:28.889Z,41.00
2018-03-28T16:01:04.727Z,41.35
2018-03-28T16:03:39.297Z,42.69
2018-03-28T16:06:11.603Z,42.68
2018-03-28T16:08:44.458Z,42.89
2018-03-28T16:11:17.330Z,42.53
2018-03-28T16:13:59.846Z,42.04
2018-03-28T16:16:31.041Z,42.52
2018-03-28T16:19:03.002Z,43.02
2018-03-28T16:21:32.813Z,43.65
2018-03-28T16:24:03.780Z,44.36
2018-03-28T16:26:34.870Z,44.75
2018-03-28T16:29:04.243Z,44.63
2018-03-28T16:31:33.594Z,44.25
2018-03-28T16:34:03.205Z,44.45
2018-03-28T16:36:34.401Z,44.72
2018-03-28T16:39:06.093Z,45.29
2018-03-28T16:41:43.059Z,45.20
2018-03-28T16:44:16.553Z,45.60
2018-03-28T16:46:46.362Z,45.37
2018-03-28T16:49:17.043Z,45.05
2018-03-28T16:51:50.078Z,45.25
2018-03-28T16:54:21.978Z,46.00
2018-03-28T16:56:53.387Z,45.84
2018-03-28T16:59:23.424Z,45.51
2018-03-28T17:01:54.872Z,45.19
2018-03-28T17:04:24.224Z,45.25
2018-03-28T17:06:54.140Z,46.07
2018-03-28T17:09:23.515Z,45.92
2018-03-28T17:11:55.220Z,46.04
2018-03-28T17:14:25.583Z,46.09
2018-03-28T17:16:55.879Z,45.89
2018-03-28T17:19:28.993Z,46.60
2018-03-28T17:22:00.000Z,46.97
2018-03-28T17:24:34.107Z,46.74
2018-03-28T17:27:06.965Z,47.23
2018-03-28T17:29:38.999Z,47.14
2018-03-28T17:35:09.610Z,46.93
2018-03-28T17:37:41.409Z,47.01
2018-03-28T17:40:15.265Z,47.10
2018-03-28T17:42:44.863Z,46.56
2018-03-28T17:45:15.417Z,46.29
2018-03-28T17:47:45.464Z,46.25
2018-03-28T17:50:21.089Z,46.79
2018-03-28T17:52:52.249Z,47.29
2018-03-28T17:55:29.581Z,47.67
2018-03-28T17:58:01.055Z,47.78
2018-03-28T18:00:34.282Z,47.21
2018-03-28T18:03:06.653Z,48.03
2018-03-28T18:05:37.480Z,48.07
2018-03-28T18:08:07.478Z,47.57
2018-03-28T18:10:37.832Z,47.82
2018-03-28T18:13:07.623Z,47.74
2018-03-28T18:15:37.059Z,48.18
2018-03-28T18:18:06.443Z,48.19
2018-03-28T18:20:35.833Z,48.63
2018-03-28T18:23:05.266Z,49.13
2018-03-28T18:25:34.707Z,49.24
2018-03-28T18:28:04.632Z,48.83
2018-03-28T18:30:34.608Z,49.48
2018-03-28T18:33:03.931Z,49.61
2018-03-28T18:35:33.324Z,49.87
2018-03-28T18:38:03.758Z,50.16
2018-03-28T18:40:39.056Z,49.39
2018-03-28T18:43:13.675Z,49.58
2018-03-28T18:45:52.195Z,49.25
2018-03-28T18:48:25.251Z,49.25
2018-03-28T18:50:56.801Z,49.43
2018-03-28T18:53:27.727Z,49.44
2018-03-28T18:56:04.432Z,49.42
2018-03-28T18:58:36.436Z,49.89
2018-03-28T19:01:05.991Z,50.85
2018-03-28T19:03:36.280Z,50.96
2018-03-28T19:06:05.644Z,50.57
2018-03-28T19:08:35.205Z,50.07
2018-03-28T19:11:05.696Z,50.05
2018-03-28T19:13:36.316Z,49.76
2018-03-28T19:16:06.673Z,50.16
2018-03-28T19:18:38.763Z,50.84
2018-03-28T19:21:16.227Z,51.69
2018-03-28T19:23:45.794Z,51.43
2018-03-28T19:26:16.570Z,51.08
2018-03-28T19:28:47.119Z,51.36
2018-03-28T19:31:17.162Z,51.47
2018-03-28T19:33:52.003Z,51.05
2018-03-28T19:39:48.618Z,52.71
2018-03-28T19:42:17.946Z,52.26
2018-03-28T19:44:48.113Z,52.01
2018-03-28T19:47:17.482Z,50.80
2018-03-28T19:49:47.800Z,50.90
2018-03-28T19:52:19.616Z,51.39
2018-03-28T19:54:52.742Z,51.84
2018-03-28T19:57:22.630Z,52.09
2018-03-28T19:59:53.388Z,52.21
2018-03-28T20:02:23.771Z,52.20
2018-03-28T20:05:20.592Z,52.36
2018-03-28T20:07:55.142Z,52.38
2018-03-28T20:10:27.538Z,53.08
2018-03-28T20:12:59.648Z,53.19
2018-03-28T20:15:30.778Z,53.98
2018-03-28T20:18:05.471Z,54.04
2018-03-28T20:20:39.053Z,54.52
2018-03-28T20:23:09.376Z,55.28
2018-03-28T20:25:43.750Z,54.27
2018-03-28T20:28:18.670Z,53.79
2018-03-28T20:30:48.358Z,53.77
2018-03-28T20:33:19.239Z,53.35
2018-03-28T20:35:48.792Z,53.21
2018-03-28T20:38:19.259Z,53.86
2018-03-28T20:40:49.207Z,54.68
2018-03-28T20:43:20.597Z,55.82
2018-03-28T20:45:50.535Z,55.94
2018-03-28T20:54:32.743Z,54.70
2018-03-28T20:57:08.182Z,54.36
2018-03-28T20:59:40.316Z,54.26
2018-03-28T21:02:10.796Z,54.25
2018-03-28T21:04:40.823Z,54.37
2018-03-28T21:07:10.993Z,54.14
2018-03-28T21:09:41.107Z,54.05
2018-03-28T21:12:11.482Z,54.26
2018-03-28T21:14:41.949Z,53.74
2018-03-28T21:17:12.161Z,52.76
2018-03-28T21:19:41.665Z,53.21
2018-03-28T21:22:11.655Z,53.52
2018-03-28T21:24:45.308Z,54.42
2018-03-28T21:27:16.234Z,55.89
2018-03-28T21:29:48.295Z,56.76
2018-03-28T21:32:18.629Z,55.91
2018-03-28T21:34:50.795Z,55.59
2018-03-28T21:37:21.931Z,54.35
2018-03-28T21:39:53.238Z,54.85
2018-03-28T21:42:25.513Z,56.24
2018-03-28T21:44:57.758Z,55.08
2018-03-28T21:47:27.684Z,55.53
2018-03-28T21:49:58.843Z,55.60
2018-03-28T21:52:32.910Z,55.19
2018-03-28T21:55:03.163Z,55.57
2018-03-28T21:57:32.484Z,55.54
2018-03-28T22:00:01.869Z,55.16
2018-03-28T22:02:32.879Z,55.40
2018-03-28T22:05:02.322Z,55.21
2018-03-28T22:07:33.894Z,55.38
2018-03-28T22:10:04.404Z,55.01
2018-03-28T22:12:35.708Z,54.46
2018-03-28T22:15:06.707Z,55.17
2018-03-28T22:17:38.932Z,55.91
2018-03-28T22:20:09.001Z,55.58
2018-03-28T22:22:38.860Z,55.76
2018-03-28T22:25:09.948Z,55.98
2018-03-28T22:27:46.271Z,55.56
2018-03-28T22:30:18.515Z,55.93
2018-03-28T22:32:48.487Z,56.36
2018-03-28T22:35:21.248Z,57.03
2018-03-28T22:37:52.279Z,56.32
2018-03-28T22:40:22.763Z,56.08
2018-03-28T22:42:53.092Z,56.38
2018-03-28T22:45:23.815Z,56.93
2018-03-28T22:47:54.026Z,56.72
2018-03-28T22:50:26.758Z,56.33
2018-03-28T22:56:17.051Z,56.72
2018-03-28T22:58:46.549Z,56.80
2018-03-28T23:01:16.668Z,57.92
2018-03-28T23:03:46.461Z,58.38
2018-03-28T23:06:16.583Z,57.33
2018-03-28T23:08:45.943Z,56.49
2018-03-28T23:11:18.442Z,56.17
2018-03-28T23:13:51.683Z,56.29
2018-03-28T23:16:26.408Z,56.53
2018-03-28T23:18:58.894Z,56.32
2018-03-28T23:21:31.737Z,57.00
2018-03-28T23:24:04.696Z,56.19
2018-03-28T23:26:35.200Z,55.47
2018-03-28T23:29:06.278Z,55.03
2018-03-28T23:31:37.355Z,55.35
2018-03-28T23:34:06.750Z,54.99
2018-03-28T23:36:36.499Z,56.24
2018-03-28T23:39:06.081Z,56.58
2018-03-28T23:41:35.551Z,55.37
2018-03-28T23:44:04.831Z,56.38
2018-03-28T23:46:34.316Z,55.24
2018-03-28T23:49:04.460Z,55.90
2018-03-28T23:51:34.083Z,55.94
2018-03-28T23:54:03.458Z,56.47
2018-03-28T23:56:32.781Z,56.73
2018-03-28T23:59:02.424Z,56.76
